Time;durP1;ratioP1;P1;durP2;ratioP2;P2;SDS_P1;SDS_P2;PMS_P1;PMS_P2;Temp;Humidity;BMP_temperature;BMP_pressure;BME280_temperature;BME280_humidity;BME280_pressure;Samples;Min_cycle;Max_cycle;Signal;HPM_P1;HPM_P2
2023/06/20 05:43:50;;;;;;;4.53;3.78;;;26.30;50.50;;;;;;5051892;28;20064;-71
2023/06/20 05:46:16;;;;;;;5.78;3.83;;;26.30;50.40;;;;;;5054418;28;20119;-71
2023/06/20 05:48:43;;;;;;;4.82;3.80;;;26.30;50.30;;;;;;5054595;28;20456;-72
2023/06/20 05:51:13;;;;;;;6.22;3.67;;;26.40;50.20;;;;;;5026686;28;20491;-72
2023/06/20 05:53:42;;;;;;;7.57;3.90;;;26.40;49.90;;;;;;5033796;28;20077;-71
2023/06/20 05:56:08;;;;;;;4.85;3.38;;;26.40;49.70;;;;;;5034928;28;20364;-71
2023/06/20 05:58:34;;;;;;;5.93;3.65;;;26.50;49.80;;;;;;5016874;28;20340;-71
2023/06/20 06:01:01;;;;;;;6.10;3.50;;;26.50;49.70;;;;;;5034659;28;20057;-71
2023/06/20 06:03:27;;;;;;;5.80;3.80;;;26.50;49.70;;;;;;5032854;28;20059;-76
2023/06/20 06:05:52;;;;;;;4.88;3.65;;;26.50;49.80;;;;;;5033644;28;20109;-71
2023/06/20 06:08:19;;;;;;;4.75;3.55;;;26.50;49.90;;;;;;5032061;28;20448;-74
2023/06/20 06:10:45;;;;;;;3.88;3.17;;;26.60;50.00;;;;;;5034788;28;20459;-77
2023/06/20 06:13:11;;;;;;;6.32;3.92;;;26.60;49.90;;;;;;5034188;28;20033;-73
2023/06/20 06:15:37;;;;;;;4.53;3.40;;;26.60;49.90;;;;;;5034344;28;20099;-72
2023/06/20 06:18:03;;;;;;;4.97;3.70;;;26.60;49.70;;;;;;5034436;28;20022;-71
2023/06/20 06:20:29;;;;;;;7.07;3.25;;;26.70;49.60;;;;;;5033327;28;20062;-71
2023/06/20 06:22:55;;;;;;;4.05;3.65;;;26.70;49.50;;;;;;5017319;28;20030;-71
2023/06/20 06:25:21;;;;;;;6.93;3.45;;;26.70;49.20;;;;;;5034817;28;20032;-72
2023/06/20 06:27:47;;;;;;;3.72;3.20;;;26.80;49.20;;;;;;5035378;28;20029;-72
2023/06/20 06:30:15;;;;;;;4.72;3.60;;;26.80;49.10;;;;;;5035316;28;20116;-72
2023/06/20 06:32:43;;;;;;;3.70;3.17;;;26.80;49.10;;;;;;5035353;28;20025;-72
2023/06/20 06:35:11;;;;;;;4.45;3.40;;;26.80;49.10;;;;;;5035343;28;20037;-72
2023/06/20 06:37:37;;;;;;;3.28;2.97;;;26.80;49.00;;;;;;5035081;28;20078;-72
2023/06/20 06:40:06;;;;;;;4.63;3.42;;;26.90;48.90;;;;;;5017831;28;20493;-72
2023/06/20 06:42:31;;;;;;;4.30;3.42;;;26.90;48.80;;;;;;5035236;28;20053;-72
2023/06/20 06:44:57;;;;;;;5.10;3.30;;;26.90;48.80;;;;;;5034953;28;20025;-72
2023/06/20 06:47:23;;;;;;;4.80;3.50;;;26.90;48.80;;;;;;5034871;28;20083;-72
2023/06/20 06:49:48;;;;;;;3.70;3.30;;;27.00;48.80;;;;;;5034660;28;20390;-72
2023/06/20 06:52:14;;;;;;;6.57;3.28;;;27.00;48.80;;;;;;5034351;28;20443;-72
2023/06/20 06:54:39;;;;;;;7.13;3.20;;;27.00;48.70;;;;;;5034542;28;20037;-72
2023/06/20 06:57:05;;;;;;;6.00;3.70;;;27.00;48.50;;;;;;5034620;28;20045;-72
2023/06/20 06:59:31;;;;;;;4.85;3.28;;;27.10;49.20;;;;;;5034807;28;20104;-72
2023/06/20 07:01:57;;;;;;;3.72;3.08;;;27.10;48.50;;;;;;5034250;28;20033;-73
2023/06/20 07:04:22;;;;;;;4.30;3.45;;;27.10;48.40;;;;;;5016996;28;20524;-72
2023/06/20 07:06:48;;;;;;;4.20;3.47;;;27.10;48.30;;;;;;5033378;28;20471;-71
2023/06/20 07:09:13;;;;;;;5.10;3.70;;;27.20;48.30;;;;;;5034321;28;20030;-72
2023/06/20 07:11:39;;;;;;;3.50;3.10;;;27.20;48.20;;;;;;5034029;28;20026;-72
2023/06/20 07:14:05;;;;;;;5.78;3.10;;;27.20;48.10;;;;;;5033977;28;20044;-72
2023/06/20 07:16:32;;;;;;;5.80;3.15;;;27.20;47.90;;;;;;5034056;28;20482;-73
2023/06/20 07:18:58;;;;;;;3.90;2.80;;;27.20;47.90;;;;;;5033268;28;20032;-73
2023/06/20 07:21:25;;;;;;;3.88;3.08;;;27.30;47.80;;;;;;5016511;28;20025;-73
2023/06/20 07:23:51;;;;;;;3.03;2.72;;;27.30;47.80;;;;;;5034471;28;20155;-73
2023/06/20 07:26:16;;;;;;;3.88;2.90;;;27.30;48.40;;;;;;5034319;28;20071;-71
2023/06/20 07:28:42;;;;;;;4.55;3.05;;;27.30;47.70;;;;;;5032925;28;20548;-72
2023/06/20 07:31:08;;;;;;;3.45;2.85;;;27.30;47.70;;;;;;5033954;28;20025;-71
2023/06/20 07:33:34;;;;;;;5.07;2.85;;;27.30;47.60;;;;;;5033239;28;20448;-71
2023/06/20 07:36:00;;;;;;;2.83;2.53;;;27.30;47.50;;;;;;5034347;28;20029;-71
2023/06/20 07:38:25;;;;;;;4.45;2.80;;;27.30;47.40;;;;;;5033833;28;20543;-71
2023/06/20 07:40:51;;;;;;;2.65;2.45;;;27.30;47.40;;;;;;5033858;28;20060;-72
2023/06/20 07:43:19;;;;;;;5.22;3.08;;;27.30;47.40;;;;;;5033722;28;20456;-72
2023/06/20 07:45:45;;;;;;;7.40;3.92;;;27.30;47.50;;;;;;5033973;28;20036;-72
2023/06/20 07:48:10;;;;;;;3.92;3.38;;;27.30;48.40;;;;;;5033996;28;20105;-73
2023/06/20 07:50:36;;;;;;;4.75;3.70;;;27.30;48.20;;;;;;5016410;28;20025;-72
2023/06/20 07:53:03;;;;;;;5.65;3.25;;;27.30;48.20;;;;;;5033876;28;20041;-72
2023/06/20 07:55:28;;;;;;;3.72;3.10;;;27.40;48.10;;;;;;5033770;28;20064;-72
2023/06/20 07:57:55;;;;;;;4.97;3.70;;;27.50;48.00;;;;;;5033650;28;20052;-72
2023/06/20 08:00:23;;;;;;;4.38;3.60;;;27.50;48.00;;;;;;5032234;28;20025;-72
2023/06/20 08:02:48;;;;;;;4.53;3.50;;;27.60;48.10;;;;;;5016202;28;20048;-73
2023/06/20 08:05:14;;;;;;;4.95;3.10;;;27.70;48.00;;;;;;5033665;28;20021;-72
2023/06/20 08:07:39;;;;;;;4.10;3.67;;;27.80;48.00;;;;;;5033423;28;20026;-72
2023/06/20 08:10:07;;;;;;;4.03;3.38;;;27.90;47.90;;;;;;5032573;28;20036;-72
2023/06/20 08:12:33;;;;;;;3.45;3.10;;;28.00;47.90;;;;;;5033398;28;20032;-72
2023/06/20 08:14:59;;;;;;;4.80;3.42;;;28.00;47.80;;;;;;5033427;28;20121;-72
2023/06/20 08:17:24;;;;;;;5.03;3.53;;;28.10;47.70;;;;;;5033855;28;20187;-72
2023/06/20 08:19:50;;;;;;;5.70;3.45;;;28.10;47.80;;;;;;5033999;28;20065;-72
2023/06/20 08:22:15;;;;;;;3.75;3.30;;;28.10;47.70;;;;;;5033553;28;20026;-72
2023/06/20 08:24:41;;;;;;;3.72;3.30;;;28.10;48.40;;;;;;5032492;28;20029;-73
2023/06/20 08:27:07;;;;;;;5.25;3.80;;;28.10;47.80;;;;;;5033404;28;20464;-72
2023/06/20 08:29:33;;;;;;;5.03;3.65;;;28.00;47.80;;;;;;5033030;28;20041;-71
2023/06/20 08:31:59;;;;;;;4.82;3.80;;;27.90;48.00;;;;;;5033176;28;20030;-71
2023/06/20 08:34:24;;;;;;;4.35;3.67;;;27.80;48.20;;;;;;5033714;28;20040;-71
2023/06/20 08:36:50;;;;;;;4.20;3.45;;;27.70;48.40;;;;;;5032222;28;20037;-71
2023/06/20 08:39:19;;;;;;;5.95;3.92;;;27.70;48.60;;;;;;5033450;28;20033;-72
2023/06/20 08:41:45;;;;;;;4.65;3.78;;;27.70;48.60;;;;;;5031915;28;20033;-72
2023/06/20 08:44:11;;;;;;;5.30;3.60;;;27.60;48.60;;;;;;5033162;28;20029;-72
2023/06/20 08:46:37;;;;;;;4.05;3.33;;;27.70;48.60;;;;;;5033700;28;20376;-71
2023/06/20 08:49:03;;;;;;;4.45;3.45;;;27.70;48.50;;;;;;5033151;28;20042;-71
2023/06/20 08:51:29;;;;;;;4.07;3.60;;;27.80;48.50;;;;;;5033186;28;20030;-72
2023/06/20 08:53:55;;;;;;;4.15;3.47;;;27.80;48.50;;;;;;5033587;28;20045;-72
2023/06/20 08:56:23;;;;;;;5.10;3.30;;;27.80;48.30;;;;;;5033289;28;20383;-72
2023/06/20 08:58:48;;;;;;;4.30;3.40;;;27.80;48.30;;;;;;5015171;28;20053;-72
2023/06/20 09:01:14;;;;;;;4.35;3.30;;;27.80;48.20;;;;;;5033552;28;20057;-72
2023/06/20 09:03:40;;;;;;;3.55;3.10;;;27.70;48.10;;;;;;5033251;28;20128;-72
2023/06/20 09:06:06;;;;;;;3.70;3.28;;;27.70;48.10;;;;;;5033400;28;20022;-72
2023/06/20 09:08:39;;;;;;;3.83;3.03;;;27.70;47.90;;;;;;5033276;28;20032;-72
2023/06/20 09:11:06;;;;;;;4.25;3.50;;;27.80;47.80;;;;;;5015422;28;20027;-72
2023/06/20 09:13:31;;;;;;;5.15;3.58;;;27.80;47.70;;;;;;5015122;28;20035;-71
2023/06/20 09:16:10;;;;;;;3.60;3.25;;;27.80;48.20;;;;;;5032606;28;20518;-71
2023/06/20 09:18:40;;;;;;;3.10;2.80;;;27.90;47.50;;;;;;5014044;28;20025;-71
2023/06/20 09:21:06;;;;;;;5.40;3.50;;;28.00;47.40;;;;;;5032840;28;20032;-72
2023/06/20 09:23:33;;;;;;;4.38;3.70;;;28.00;47.50;;;;;;5032837;28;20041;-72
2023/06/20 09:26:16;;;;;;;4.32;3.47;;;28.00;47.40;;;;;;5014791;28;20025;-71
2023/06/20 09:28:42;;;;;;;4.90;3.30;;;28.10;47.40;;;;;;5033048;28;20025;-72
2023/06/20 09:31:08;;;;;;;4.50;3.60;;;28.20;47.30;;;;;;5015311;28;20037;-72
2023/06/20 09:33:37;;;;;;;3.85;3.38;;;28.20;47.20;;;;;;5032996;28;20045;-72
2023/06/20 09:36:17;;;;;;;4.20;3.60;;;28.20;47.40;;;;;;5032838;28;20034;-72
2023/06/20 09:38:44;;;;;;;4.40;3.45;;;28.10;47.60;;;;;;5015127;28;20053;-72
2023/06/20 09:41:15;;;;;;;4.20;3.20;;;28.10;47.60;;;;;;5033362;28;20467;-72
2023/06/20 09:43:40;;;;;;;4.07;3.17;;;28.20;48.20;;;;;;5036802;28;20102;-72
2023/06/20 09:46:06;;;;;;;3.70;3.30;;;28.30;47.60;;;;;;5036190;28;20029;-72
2023/06/20 09:48:33;;;;;;;4.28;3.47;;;28.20;47.50;;;;;;5036178;28;20037;-72
2023/06/20 09:51:01;;;;;;;3.65;3.00;;;28.30;47.50;;;;;;5036050;28;20029;-72
2023/06/20 09:53:33;;;;;;;4.15;3.15;;;28.30;47.50;;;;;;5018411;28;20041;-72
2023/06/20 09:56:01;;;;;;;4.13;3.20;;;28.20;47.40;;;;;;5036291;28;20032;-71
2023/06/20 09:58:29;;;;;;;4.63;3.42;;;28.20;47.40;;;;;;5035614;28;20026;-72
2023/06/20 10:00:56;;;;;;;3.38;3.00;;;28.10;47.40;;;;;;5035728;28;20034;-71
2023/06/20 10:03:22;;;;;;;4.45;3.53;;;28.00;47.30;;;;;;5017815;28;20142;-71
2023/06/20 10:05:48;;;;;;;5.05;4.10;;;28.10;47.40;;;;;;5035674;28;20022;-72
2023/06/20 10:08:17;;;;;;;4.25;3.50;;;28.20;47.50;;;;;;5034802;28;20108;-71
2023/06/20 10:10:42;;;;;;;4.40;3.40;;;28.20;47.20;;;;;;5034063;28;20368;-72
2023/06/20 10:13:09;;;;;;;4.10;3.47;;;28.30;47.20;;;;;;5017168;28;20084;-72
2023/06/20 10:15:36;;;;;;;3.50;3.10;;;28.40;47.20;;;;;;5034302;28;20038;-72
2023/06/20 10:18:03;;;;;;;4.05;3.40;;;28.40;47.10;;;;;;5035369;28;20450;-72
2023/06/20 10:20:31;;;;;;;4.40;3.35;;;28.40;47.10;;;;;;5035672;28;20144;-72
2023/06/20 10:23:02;;;;;;;3.60;3.20;;;28.50;47.10;;;;;;5035586;28;20029;-71
2023/06/20 10:25:27;;;;;;;5.18;3.47;;;28.60;47.00;;;;;;5035850;28;20021;-73
2023/06/20 10:28:03;;;;;;;3.60;3.25;;;28.60;46.90;;;;;;5035525;28;20384;-71
2023/06/20 10:30:50;;;;;;;5.25;3.30;;;28.60;46.80;;;;;;5017058;28;20033;-72
2023/06/20 10:33:29;;;;;;;4.30;3.40;;;28.60;46.80;;;;;;5035225;28;20420;-71
2023/06/20 10:36:05;;;;;;;5.43;3.50;;;28.60;46.90;;;;;;5017090;28;20029;-71
2023/06/20 10:38:32;;;;;;;4.68;4.03;;;28.50;46.50;;;;;;5017472;28;20053;-71
2023/06/20 10:41:09;;;;;;;4.55;3.85;;;28.30;46.40;;;;;;5035124;28;20432;-71
2023/06/20 10:43:58;;;;;;;4.82;3.65;;;28.40;46.20;;;;;;5001996;28;20058;-70
2023/06/20 10:46:36;;;;;;;3.53;3.13;;;28.40;46.10;;;;;;5015770;28;20038;-71
2023/06/20 10:49:06;;;;;;;5.45;3.40;;;28.50;46.10;;;;;;5015166;28;20033;-71
2023/06/20 10:51:48;;;;;;;4.75;3.63;;;28.50;46.00;;;;;;4997552;28;20076;-70
2023/06/20 10:54:15;;;;;;;4.60;3.50;;;28.50;45.80;;;;;;4996765;28;20091;-69
2023/06/20 10:56:43;;;;;;;5.03;3.38;;;28.50;46.30;;;;;;5014952;28;20041;-69
2023/06/20 10:59:13;;;;;;;4.20;3.40;;;28.50;46.30;;;;;;4996962;28;20380;-69
2023/06/20 11:01:39;;;;;;;3.88;3.47;;;28.50;46.30;;;;;;4996665;28;20033;-69
2023/06/20 11:04:09;;;;;;;5.40;3.40;;;28.40;46.20;;;;;;4996900;28;20033;-69
2023/06/20 11:06:36;;;;;;;4.35;3.35;;;28.40;46.80;;;;;;5014457;28;20029;-69
2023/06/20 11:09:02;;;;;;;4.40;3.45;;;28.50;46.10;;;;;;5014574;28;20113;-69
2023/06/20 11:11:46;;;;;;;4.28;3.30;;;28.70;46.10;;;;;;5014185;28;20022;-69
2023/06/20 11:14:17;;;;;;;3.95;3.20;;;28.80;45.80;;;;;;4996353;28;20033;-70
2023/06/20 11:16:43;;;;;;;4.28;3.40;;;28.80;45.80;;;;;;5014598;28;20495;-69
2023/06/20 11:19:09;;;;;;;3.80;3.25;;;28.90;45.70;;;;;;4997208;28;20076;-69
2023/06/20 11:21:35;;;;;;;3.75;3.30;;;29.00;45.70;;;;;;5014981;28;20026;-70
2023/06/20 11:24:02;;;;;;;3.72;3.17;;;29.10;45.60;;;;;;5014451;28;20040;-71
2023/06/20 11:26:32;;;;;;;4.18;3.78;;;29.10;45.50;;;;;;5014156;28;20056;-74
2023/06/20 11:29:02;;;;;;;3.90;3.10;;;29.10;45.30;;;;;;5013918;28;20043;-73
2023/06/20 11:31:28;;;;;;;5.57;2.80;;;29.20;45.30;;;;;;5014283;28;20049;-73
2023/06/20 11:34:08;;;;;;;5.13;3.13;;;29.30;45.20;;;;;;5014176;28;20029;-73
2023/06/20 11:36:35;;;;;;;3.22;2.92;;;29.40;45.10;;;;;;5013790;28;20029;-73
2023/06/20 11:39:12;;;;;;;3.20;2.90;;;29.50;45.10;;;;;;4996365;28;20041;-73
2023/06/20 11:41:38;;;;;;;4.55;3.33;;;29.50;44.90;;;;;;4996881;28;20142;-74
2023/06/20 11:44:04;;;;;;;3.75;2.97;;;29.50;44.80;;;;;;5033412;28;20541;-74
2023/06/20 11:46:29;;;;;;;4.03;3.10;;;29.50;44.70;;;;;;5033765;28;20036;-73
2023/06/20 11:48:59;;;;;;;3.65;3.10;;;29.50;44.70;;;;;;5033240;28;20064;-74
2023/06/20 11:51:26;;;;;;;3.20;2.90;;;29.40;44.70;;;;;;5033308;28;20028;-74
2023/06/20 11:54:07;;;;;;;3.78;3.35;;;29.40;44.50;;;;;;5033403;28;20083;-74
2023/06/20 11:56:33;;;;;;;4.28;3.17;;;29.40;44.30;;;;;;5033438;28;20037;-74
2023/06/20 11:58:59;;;;;;;3.22;2.92;;;29.40;44.40;;;;;;5033217;28;20088;-73
2023/06/20 12:01:25;;;;;;;3.53;3.00;;;29.40;44.40;;;;;;5033744;28;20092;-74
2023/06/20 12:04:12;;;;;;;3.75;3.03;;;29.30;44.20;;;;;;5033597;28;20033;-74
2023/06/20 12:06:45;;;;;;;3.75;3.22;;;29.30;44.20;;;;;;5016199;28;20121;-73
2023/06/20 12:09:16;;;;;;;3.92;3.13;;;29.30;44.40;;;;;;5034053;28;20083;-74
2023/06/20 12:11:53;;;;;;;3.35;3.00;;;29.30;44.50;;;;;;5016089;28;20033;-73
2023/06/20 12:14:19;;;;;;;3.67;3.17;;;29.30;44.50;;;;;;5015775;28;20060;-74
2023/06/20 12:16:45;;;;;;;4.60;3.33;;;29.30;44.50;;;;;;5031846;28;20040;-74
2023/06/20 12:19:11;;;;;;;3.85;3.30;;;29.30;44.60;;;;;;5032525;28;20468;-73
2023/06/20 12:21:39;;;;;;;5.05;3.30;;;29.30;44.60;;;;;;5014155;28;20033;-72
2023/06/20 12:24:09;;;;;;;3.72;3.15;;;29.30;44.60;;;;;;5033008;28;20037;-72
2023/06/20 12:26:35;;;;;;;3.28;2.97;;;29.30;44.70;;;;;;5033324;28;20109;-73
2023/06/20 12:29:01;;;;;;;3.88;3.17;;;29.30;44.70;;;;;;5015915;28;20443;-73
2023/06/20 12:31:27;;;;;;;4.93;3.15;;;29.30;44.70;;;;;;5015680;28;20041;-73
2023/06/20 12:33:53;;;;;;;4.00;3.55;;;29.30;44.70;;;;;;5033610;28;20033;-73
2023/06/20 12:36:18;;;;;;;3.70;3.13;;;29.40;44.80;;;;;;5015946;28;20029;-74
2023/06/20 12:38:44;;;;;;;3.60;3.28;;;29.30;44.80;;;;;;5033441;28;20375;-74
2023/06/20 12:41:11;;;;;;;3.50;3.20;;;29.40;44.90;;;;;;5033552;28;20457;-74
2023/06/20 12:43:37;;;;;;;3.72;3.17;;;29.40;44.80;;;;;;5012364;28;20439;-74
2023/06/20 12:46:03;;;;;;;4.18;3.30;;;29.50;44.90;;;;;;5013741;28;20113;-73
2023/06/20 12:48:28;;;;;;;4.70;3.38;;;29.50;44.80;;;;;;5013748;28;20380;-73
2023/06/20 12:50:54;;;;;;;3.90;3.33;;;29.60;44.80;;;;;;4996159;28;20026;-73
2023/06/20 12:53:20;;;;;;;3.83;3.28;;;29.60;44.80;;;;;;5013592;28;20038;-73
2023/06/20 12:55:45;;;;;;;3.80;3.40;;;29.70;44.80;;;;;;5013560;28;20518;-73
2023/06/20 12:58:13;;;;;;;4.40;3.30;;;29.70;44.70;;;;;;5013306;28;20365;-73
2023/06/20 13:00:41;;;;;;;4.70;3.28;;;29.80;44.70;;;;;;5013653;28;20034;-73
2023/06/20 13:03:08;;;;;;;3.78;3.38;;;29.80;44.70;;;;;;5013725;28;20080;-74
2023/06/20 13:05:35;;;;;;;4.50;3.50;;;29.90;44.70;;;;;;5013403;28;20022;-73
2023/06/20 13:08:02;;;;;;;6.30;3.58;;;30.00;44.70;;;;;;5012085;28;20065;-74
2023/06/20 13:10:28;;;;;;;4.53;3.08;;;30.00;44.50;;;;;;5013622;28;20048;-73
2023/06/20 13:12:56;;;;;;;3.35;3.05;;;30.10;44.50;;;;;;5013411;28;20061;-73
2023/06/20 13:15:24;;;;;;;4.35;3.05;;;30.10;44.40;;;;;;5013307;28;20041;-73
2023/06/20 13:17:54;;;;;;;4.00;3.13;;;30.20;44.40;;;;;;5016914;28;20018;-73
2023/06/20 13:20:23;;;;;;;5.60;3.42;;;30.20;44.40;;;;;;5017368;28;20057;-73
2023/06/20 13:22:49;;;;;;;3.70;3.30;;;30.10;44.40;;;;;;5016893;28;20092;-73
2023/06/20 13:25:15;;;;;;;3.58;3.17;;;30.10;44.30;;;;;;4999427;28;20022;-74
2023/06/20 13:27:42;;;;;;;5.45;3.30;;;30.00;44.30;;;;;;5016908;28;20026;-74
2023/06/20 13:30:08;;;;;;;3.40;3.10;;;30.00;44.40;;;;;;5016909;28;20392;-73
2023/06/20 13:32:34;;;;;;;4.22;3.38;;;29.90;44.40;;;;;;5017036;28;20026;-74
2023/06/20 13:35:02;;;;;;;3.70;3.30;;;29.80;44.50;;;;;;5015556;28;20164;-74
2023/06/20 13:37:28;;;;;;;3.85;3.30;;;29.80;44.50;;;;;;5016747;28;20425;-74
2023/06/20 13:39:54;;;;;;;4.82;3.75;;;29.80;44.60;;;;;;5016812;28;20025;-74
2023/06/20 13:42:20;;;;;;;3.92;3.42;;;29.70;44.60;;;;;;5021561;28;20053;-74
2023/06/20 13:44:45;;;;;;;3.90;3.50;;;29.70;44.70;;;;;;5036830;28;20033;-74
2023/06/20 13:47:11;;;;;;;5.15;3.60;;;29.60;44.70;;;;;;5019049;28;20029;-74
2023/06/20 13:49:36;;;;;;;5.85;3.28;;;29.50;44.70;;;;;;5018593;28;20048;-73
2023/06/20 13:52:02;;;;;;;3.90;3.40;;;29.50;44.80;;;;;;5036072;28;20032;-73
2023/06/20 13:54:28;;;;;;;5.40;3.88;;;29.50;44.80;;;;;;5036592;28;20045;-73
2023/06/20 13:56:54;;;;;;;4.15;3.67;;;29.40;44.80;;;;;;5036178;28;20038;-73
2023/06/20 13:59:20;;;;;;;5.03;3.50;;;29.40;44.90;;;;;;5036458;28;20365;-73
2023/06/20 14:01:46;;;;;;;3.95;3.50;;;29.40;44.90;;;;;;5036004;28;20360;-73
2023/06/20 14:04:12;;;;;;;4.43;3.35;;;29.40;45.00;;;;;;5035972;28;20171;-73
2023/06/20 14:06:37;;;;;;;3.85;3.42;;;29.40;45.00;;;;;;5017925;28;20026;-74
2023/06/20 14:09:05;;;;;;;4.80;3.40;;;29.40;45.00;;;;;;5035781;28;20030;-74
2023/06/20 14:11:30;;;;;;;4.63;3.60;;;29.40;45.00;;;;;;5036047;28;20025;-74
2023/06/20 14:13:56;;;;;;;4.68;3.42;;;29.40;45.00;;;;;;5035855;28;20030;-74
2023/06/20 14:16:23;;;;;;;6.55;3.70;;;29.50;45.00;;;;;;5035796;28;20057;-74
2023/06/20 14:18:49;;;;;;;5.60;3.80;;;29.50;44.90;;;;;;5035723;28;20029;-75
2023/06/20 14:21:15;;;;;;;6.15;3.90;;;29.70;45.10;;;;;;5035588;28;20027;-74
2023/06/20 14:23:41;;;;;;;4.72;3.92;;;30.10;45.10;;;;;;5034507;28;20107;-74
2023/06/20 14:26:06;;;;;;;5.10;3.75;;;30.50;44.70;;;;;;5035195;28;20037;-74
2023/06/20 14:28:32;;;;;;;6.85;4.20;;;30.70;44.50;;;;;;5034258;28;20026;-74
2023/06/20 14:30:59;;;;;;;4.68;3.78;;;30.80;44.30;;;;;;5035556;28;20464;-74
2023/06/20 14:33:25;;;;;;;5.32;3.97;;;30.80;44.20;;;;;;5017521;28;20156;-74
2023/06/20 14:35:50;;;;;;;4.68;3.50;;;30.70;44.10;;;;;;5035179;28;20038;-73
2023/06/20 14:38:16;;;;;;;4.78;3.90;;;30.70;44.20;;;;;;5034142;28;20379;-73
2023/06/20 14:40:42;;;;;;;4.72;3.80;;;30.60;44.20;;;;;;5035303;28;20116;-73
2023/06/20 14:43:07;;;;;;;4.07;3.60;;;30.60;44.30;;;;;;5035337;28;20061;-73
2023/06/20 14:45:33;;;;;;;4.70;3.80;;;30.50;44.30;;;;;;5035213;28;20021;-74
2023/06/20 14:47:59;;;;;;;5.20;4.05;;;30.50;44.40;;;;;;5017540;28;20031;-74
2023/06/20 14:50:26;;;;;;;5.20;3.80;;;30.50;44.60;;;;;;5017598;28;20357;-74
2023/06/20 14:52:52;;;;;;;5.63;3.63;;;30.50;44.50;;;;;;5034896;28;20033;-74
2023/06/20 14:55:17;;;;;;;6.45;4.32;;;30.50;44.50;;;;;;5035327;28;20029;-74
2023/06/20 14:57:43;;;;;;;6.15;4.00;;;30.50;44.50;;;;;;5017232;28;20395;-74
2023/06/20 15:00:18;;;;;;;6.50;4.40;;;30.50;44.50;;;;;;5034718;28;20033;-74
2023/06/20 15:02:44;;;;;;;5.00;4.28;;;30.50;44.50;;;;;;5017221;28;20103;-74
2023/06/20 15:05:10;;;;;;;5.88;4.30;;;30.50;44.40;;;;;;5017200;28;20514;-73
2023/06/20 15:07:36;;;;;;;7.70;5.00;;;30.60;44.50;;;;;;5034406;28;20022;-73
2023/06/20 15:10:02;;;;;;;6.55;4.18;;;30.70;44.50;;;;;;5017166;28;20029;-74
2023/06/20 15:12:28;;;;;;;5.50;4.05;;;30.80;44.50;;;;;;5017017;28;20084;-73
2023/06/20 15:14:54;;;;;;;6.05;4.22;;;31.00;44.40;;;;;;5033875;28;20057;-73
2023/06/20 15:17:20;;;;;;;8.77;4.03;;;31.20;44.30;;;;;;5006960;28;20076;-73
2023/06/20 15:19:46;;;;;;;6.38;3.92;;;31.30;44.10;;;;;;5033164;28;20028;-73
2023/06/20 15:22:12;;;;;;;6.40;4.03;;;31.40;44.00;;;;;;5033858;28;20387;-73
2023/06/20 15:24:38;;;;;;;6.43;4.40;;;31.40;44.00;;;;;;5029796;28;20072;-73
2023/06/20 15:27:04;;;;;;;6.78;4.35;;;31.40;43.90;;;;;;5013339;28;20447;-75
2023/06/20 15:29:31;;;;;;;4.88;3.60;;;31.30;43.90;;;;;;5033243;28;20025;-72
2023/06/20 15:31:57;;;;;;;5.38;3.90;;;31.20;43.90;;;;;;5032511;28;20076;-73
2023/06/20 15:34:22;;;;;;;5.50;3.83;;;31.10;43.90;;;;;;5033037;28;20033;-73
2023/06/20 15:36:48;;;;;;;4.82;3.80;;;31.00;43.90;;;;;;5032795;28;20387;-75
2023/06/20 15:39:15;;;;;;;6.90;3.80;;;30.90;44.00;;;;;;5014511;28;20362;-74
2023/06/20 15:41:44;;;;;;;4.82;4.32;;;30.80;44.10;;;;;;5032374;28;20121;-73
2023/06/20 15:44:09;;;;;;;7.25;4.45;;;30.60;44.00;;;;;;5013941;28;20046;-73
2023/06/20 15:46:35;;;;;;;6.22;4.10;;;30.50;44.10;;;;;;5032636;28;20026;-74
2023/06/20 15:49:02;;;;;;;6.18;4.35;;;30.40;44.30;;;;;;5032991;28;20025;-73
2023/06/20 15:51:28;;;;;;;5.30;4.10;;;30.30;44.30;;;;;;5032375;28;20455;-73
2023/06/20 15:53:55;;;;;;;6.57;4.13;;;30.10;44.30;;;;;;5032618;28;20025;-74
2023/06/20 15:56:21;;;;;;;5.32;4.20;;;30.10;44.40;;;;;;5033192;28;20041;-74
2023/06/20 15:58:47;;;;;;;4.93;4.10;;;30.00;44.50;;;;;;5015223;28;20041;-74
2023/06/20 16:01:13;;;;;;;6.18;5.03;;;29.90;45.20;;;;;;5032613;28;20052;-74
2023/06/20 16:03:39;;;;;;;5.85;4.53;;;29.90;44.60;;;;;;5032734;28;20029;-74
2023/06/20 16:06:05;;;;;;;5.85;4.60;;;29.80;44.70;;;;;;5032521;28;20515;-75
2023/06/20 16:08:31;;;;;;;7.07;4.60;;;29.80;44.80;;;;;;5015080;28;20091;-73
2023/06/20 16:10:57;;;;;;;7.40;4.43;;;29.70;44.80;;;;;;5032585;28;20472;-73
2023/06/20 16:13:23;;;;;;;5.07;4.57;;;29.60;44.90;;;;;;5031903;28;20040;-74
2023/06/20 16:15:49;;;;;;;5.95;5.18;;;29.60;45.00;;;;;;5014630;28;20372;-74
2023/06/20 16:18:15;;;;;;;5.25;4.60;;;29.50;45.00;;;;;;5032435;28;20097;-74
2023/06/20 16:20:43;;;;;;;9.02;4.72;;;29.50;45.10;;;;;;5014712;28;20030;-74
2023/06/20 16:23:08;;;;;;;5.85;4.60;;;29.40;45.30;;;;;;5032061;28;20083;-74
2023/06/20 16:25:34;;;;;;;6.63;4.72;;;29.30;45.70;;;;;;5031798;28;20456;-74
2023/06/20 16:28:00;;;;;;;4.95;4.45;;;29.20;45.90;;;;;;5032287;28;20033;-73
2023/06/20 16:30:25;;;;;;;6.40;4.40;;;29.00;46.10;;;;;;5014604;28;20025;-73
2023/06/20 16:32:51;;;;;;;5.35;4.55;;;28.90;46.40;;;;;;5032110;28;20030;-74
2023/06/20 16:35:17;;;;;;;5.93;4.50;;;28.80;46.90;;;;;;5031616;28;20057;-73
2023/06/20 16:37:42;;;;;;;5.65;4.80;;;28.70;46.80;;;;;;5031873;28;20030;-74
2023/06/20 16:40:08;;;;;;;8.02;5.25;;;28.50;46.90;;;;;;5032197;28;20036;-75
2023/06/20 16:42:34;;;;;;;6.28;5.28;;;28.40;47.20;;;;;;5032283;28;20060;-74
2023/06/20 16:45:00;;;;;;;5.35;4.85;;;28.30;47.40;;;;;;5031885;28;20033;-74
2023/06/20 16:47:26;;;;;;;5.07;4.55;;;28.20;47.70;;;;;;5032536;28;20029;-74
2023/06/20 16:49:52;;;;;;;5.63;4.93;;;28.10;47.90;;;;;;5031519;28;20018;-74
2023/06/20 16:52:18;;;;;;;5.85;4.78;;;28.00;48.20;;;;;;5035228;28;20419;-74
2023/06/20 16:54:43;;;;;;;5.50;4.90;;;27.90;48.50;;;;;;5017972;28;20129;-74
2023/06/20 16:57:09;;;;;;;5.72;5.00;;;27.70;48.70;;;;;;5018335;28;20033;-73
2023/06/20 16:59:36;;;;;;;5.30;4.80;;;27.70;49.10;;;;;;5036229;28;20104;-74
2023/06/20 17:02:05;;;;;;;6.32;5.18;;;27.60;49.50;;;;;;5017660;28;20036;-73
2023/06/20 17:04:31;;;;;;;7.68;4.00;;;27.50;49.80;;;;;;5035879;28;20156;-73
2023/06/20 17:06:56;;;;;;;5.32;4.82;;;27.40;50.10;;;;;;5035800;28;20025;-73
2023/06/20 17:09:22;;;;;;;6.93;5.30;;;27.30;50.30;;;;;;5035947;28;20116;-73
2023/06/20 17:11:51;;;;;;;6.80;4.57;;;27.20;50.50;;;;;;5035618;28;20026;-74
2023/06/20 17:14:17;;;;;;;4.55;4.05;;;27.20;50.80;;;;;;5016931;28;20029;-73
2023/06/20 17:16:45;;;;;;;6.68;4.57;;;27.10;51.00;;;;;;5015676;28;20102;-73
2023/06/20 17:19:11;;;;;;;8.43;4.28;;;27.00;51.20;;;;;;5017314;28;20037;-73
2023/06/20 17:21:40;;;;;;;4.85;4.30;;;26.90;51.30;;;;;;5035346;28;20403;-74
2023/06/20 17:24:06;;;;;;;5.55;4.70;;;26.90;51.40;;;;;;5011788;28;20033;-75
2023/06/20 17:26:31;;;;;;;4.35;3.90;;;26.80;51.50;;;;;;5034714;28;20040;-74
2023/06/20 17:28:57;;;;;;;6.55;4.45;;;26.80;51.70;;;;;;5035009;28;20021;-73
2023/06/20 17:31:23;;;;;;;6.03;4.13;;;26.70;51.80;;;;;;5035007;28;20021;-74
2023/06/20 17:33:49;;;;;;;5.05;4.50;;;26.70;51.90;;;;;;5035268;28;20026;-73
2023/06/20 17:36:15;;;;;;;6.15;4.18;;;26.70;52.10;;;;;;5034553;28;20021;-73
2023/06/20 17:38:40;;;;;;;5.35;3.92;;;26.60;52.10;;;;;;5034783;28;20095;-74
2023/06/20 17:41:06;;;;;;;5.20;3.90;;;26.50;52.20;;;;;;5034929;28;20021;-73
2023/06/20 17:43:32;;;;;;;4.25;3.85;;;26.40;52.20;;;;;;5013574;28;20488;-73
2023/06/20 17:45:58;;;;;;;5.50;4.20;;;26.40;52.30;;;;;;4988322;28;20023;-74
2023/06/20 17:48:23;;;;;;;5.20;3.85;;;26.30;52.30;;;;;;5015101;28;20121;-73
2023/06/20 17:50:49;;;;;;;4.03;3.60;;;26.30;52.50;;;;;;5014897;28;20024;-74
2023/06/20 17:53:15;;;;;;;5.88;4.43;;;26.30;52.50;;;;;;5014679;28;20522;-73
2023/06/20 17:55:41;;;;;;;4.82;3.88;;;26.30;52.70;;;;;;5015069;28;20383;-74
2023/06/20 17:58:07;;;;;;;4.50;4.00;;;26.30;52.80;;;;;;5015108;28;20484;-73
2023/06/20 18:00:32;;;;;;;4.70;4.20;;;26.30;53.00;;;;;;5014556;28;20028;-74
2023/06/20 18:02:59;;;;;;;4.95;3.83;;;26.20;53.20;;;;;;4996764;28;20094;-73
2023/06/20 18:05:25;;;;;;;5.32;4.32;;;26.10;53.30;;;;;;5000199;28;20025;-73
2023/06/20 18:07:54;;;;;;;4.78;4.28;;;26.00;53.70;;;;;;5013226;28;20160;-71
2023/06/20 18:10:24;;;;;;;5.93;5.32;;;25.90;54.20;;;;;;5013760;28;20026;-71
2023/06/20 18:12:51;;;;;;;8.27;5.15;;;25.80;55.00;;;;;;5015114;28;20396;-73
2023/06/20 18:15:16;;;;;;;7.97;4.95;;;25.50;55.90;;;;;;4996681;28;20026;-72
2023/06/20 18:17:42;;;;;;;6.68;5.30;;;25.40;56.00;;;;;;5014741;28;20048;-72
2023/06/20 18:20:10;;;;;;;5.95;5.13;;;25.30;56.10;;;;;;4997494;28;20033;-72
2023/06/20 18:22:36;;;;;;;5.13;4.63;;;25.40;56.50;;;;;;4997570;28;20045;-73
2023/06/20 18:25:02;;;;;;;5.30;4.80;;;25.50;56.50;;;;;;5014605;28;20373;-72
2023/06/20 18:27:28;;;;;;;6.70;5.78;;;25.50;57.00;;;;;;5014354;28;20032;-71
2023/06/20 18:29:56;;;;;;;7.97;5.97;;;25.50;58.10;;;;;;5014738;28;20057;-73